createdAt,value
2022-10-20T00:00:32.099Z,18.20
2022-10-20T00:02:58.852Z,18.10
2022-10-20T00:05:25.519Z,18.10
2022-10-20T00:07:52.294Z,18.10
2022-10-20T00:10:18.901Z,18.10
2022-10-20T00:12:45.615Z,18.10
2022-10-20T00:15:12.309Z,18.10
2022-10-20T00:17:38.946Z,18.10
2022-10-20T00:20:05.937Z,18.10
2022-10-20T00:22:32.820Z,18.10
2022-10-20T00:24:59.600Z,18.10
2022-10-20T00:27:26.272Z,18.10
2022-10-20T00:29:53.043Z,18.10
2022-10-20T00:32:19.703Z,18.10
2022-10-20T00:34:46.336Z,18.10
2022-10-20T00:37:13.011Z,18.10
2022-10-20T00:39:39.786Z,18.10
2022-10-20T00:42:06.767Z,18.10
2022-10-20T00:44:52.219Z,18.10
2022-10-20T00:47:27.032Z,18.10
2022-10-20T00:49:55.756Z,18.00
2022-10-20T00:52:22.763Z,18.00
2022-10-20T00:54:49.646Z,18.00
2022-10-20T00:57:17.384Z,18.00
2022-10-20T00:59:44.635Z,18.00
2022-10-20T01:02:11.717Z,18.00
2022-10-20T01:04:39.059Z,18.00
2022-10-20T01:07:06.096Z,18.00
2022-10-20T01:09:33.434Z,18.00
2022-10-20T01:12:06.032Z,18.00
2022-10-20T01:14:47.928Z,18.00
2022-10-20T01:17:35.124Z,17.90
2022-10-20T01:20:14.217Z,17.90
2022-10-20T01:22:50.081Z,17.90
2022-10-20T01:25:37.072Z,17.90
2022-10-20T01:28:03.711Z,17.90
2022-10-20T01:30:32.775Z,17.90
2022-10-20T01:33:13.798Z,17.90
2022-10-20T01:35:43.018Z,17.90
2022-10-20T01:38:28.344Z,17.90
2022-10-20T01:41:02.998Z,17.90
2022-10-20T01:43:32.460Z,17.90
2022-10-20T01:45:59.971Z,17.80
2022-10-20T01:48:28.941Z,17.90
2022-10-20T01:50:55.981Z,17.90
2022-10-20T01:53:22.644Z,17.80
2022-10-20T01:55:50.961Z,17.80
2022-10-20T01:58:30.428Z,17.80
2022-10-20T02:01:00.012Z,17.80
2022-10-20T02:03:51.401Z,17.80
2022-10-20T02:06:34.429Z,17.80
2022-10-20T02:09:05.740Z,17.80
2022-10-20T02:11:41.544Z,17.80
2022-10-20T02:14:09.885Z,17.80
2022-10-20T02:16:39.613Z,17.80
2022-10-20T02:19:07.540Z,17.80
2022-10-20T02:21:34.492Z,17.80
2022-10-20T02:24:03.802Z,17.80
2022-10-20T02:26:32.320Z,17.80
2022-10-20T02:29:00.503Z,17.80
2022-10-20T02:31:27.356Z,17.80
2022-10-20T02:33:56.067Z,17.80
2022-10-20T02:36:26.005Z,17.80
2022-10-20T02:38:52.937Z,17.80
2022-10-20T02:41:19.631Z,17.70
2022-10-20T02:43:46.347Z,17.70
2022-10-20T02:46:13.025Z,17.70
2022-10-20T02:48:39.902Z,17.80
2022-10-20T02:51:06.707Z,17.70
2022-10-20T02:53:33.648Z,17.70
2022-10-20T02:56:00.271Z,17.70
2022-10-20T02:58:27.055Z,17.70
2022-10-20T03:00:53.671Z,17.70
2022-10-20T03:03:20.413Z,17.70
2022-10-20T03:05:47.597Z,17.70
2022-10-20T03:08:14.786Z,17.60
2022-10-20T03:10:42.679Z,17.70
2022-10-20T03:13:10.244Z,17.60
2022-10-20T03:15:38.722Z,17.60
2022-10-20T03:18:05.666Z,17.60
2022-10-20T03:20:32.671Z,17.60
2022-10-20T03:22:59.419Z,17.60
2022-10-20T03:25:26.095Z,17.60
2022-10-20T03:27:52.920Z,17.60
2022-10-20T03:30:19.545Z,17.60
2022-10-20T03:32:46.276Z,17.60
2022-10-20T03:35:12.925Z,17.50
2022-10-20T03:37:39.626Z,17.50
2022-10-20T03:40:06.607Z,17.60
2022-10-20T03:42:33.505Z,17.60
2022-10-20T03:45:00.693Z,17.50
2022-10-20T03:47:27.381Z,17.50
2022-10-20T03:49:54.037Z,17.50
2022-10-20T03:52:20.807Z,17.50
2022-10-20T03:54:47.548Z,17.50
2022-10-20T03:57:14.268Z,17.50
2022-10-20T03:59:40.943Z,17.50
2022-10-20T04:02:07.735Z,17.50
2022-10-20T04:04:34.475Z,17.50
2022-10-20T04:07:01.115Z,17.50
2022-10-20T04:09:27.779Z,17.60
2022-10-20T04:11:54.445Z,17.70
2022-10-20T04:14:21.100Z,17.70
2022-10-20T04:16:47.868Z,17.60
2022-10-20T04:19:14.712Z,17.50
2022-10-20T04:21:41.400Z,17.50
2022-10-20T04:24:08.308Z,17.50
2022-10-20T04:26:35.012Z,17.40
2022-10-20T04:29:02.546Z,17.50
2022-10-20T04:31:29.303Z,17.50
2022-10-20T04:33:55.980Z,17.50
2022-10-20T04:36:22.641Z,17.40
2022-10-20T04:38:49.296Z,17.50
2022-10-20T04:41:16.008Z,17.50
2022-10-20T04:43:42.635Z,17.40
2022-10-20T04:46:10.450Z,17.50
2022-10-20T04:48:37.501Z,17.50
2022-10-20T04:51:05.403Z,17.40
2022-10-20T04:53:32.181Z,17.40
2022-10-20T04:55:58.811Z,17.40
2022-10-20T04:58:26.234Z,17.50
2022-10-20T05:00:53.246Z,17.40
2022-10-20T05:03:20.111Z,17.50
2022-10-20T05:05:47.479Z,17.50
2022-10-20T05:08:14.521Z,17.50
2022-10-20T05:10:41.309Z,17.40
2022-10-20T05:13:07.988Z,17.40
2022-10-20T05:15:34.644Z,17.40
2022-10-20T05:18:01.387Z,17.40
2022-10-20T05:20:30.926Z,17.40
2022-10-20T05:22:57.850Z,17.40
2022-10-20T05:25:36.228Z,17.30
2022-10-20T05:28:03.921Z,17.30
2022-10-20T05:30:30.832Z,17.30
2022-10-20T05:32:57.529Z,17.30
2022-10-20T05:35:24.184Z,17.30
2022-10-20T05:37:50.828Z,17.30
2022-10-20T05:40:17.526Z,17.40
2022-10-20T05:42:44.214Z,17.40
2022-10-20T05:45:11.004Z,17.30
2022-10-20T05:47:37.700Z,17.30
2022-10-20T05:50:04.812Z,17.30
2022-10-20T05:52:31.773Z,17.30
2022-10-20T05:54:59.491Z,17.30
2022-10-20T05:57:26.342Z,17.30
2022-10-20T05:59:52.964Z,17.30
2022-10-20T06:02:19.719Z,17.30
2022-10-20T06:04:46.359Z,17.20
2022-10-20T06:07:13.036Z,17.20
2022-10-20T06:09:40.026Z,17.20
2022-10-20T06:14:38.841Z,17.20
2022-10-20T06:17:05.448Z,17.20
2022-10-20T06:19:32.492Z,17.20
2022-10-20T06:22:03.796Z,17.20
2022-10-20T06:24:34.585Z,17.20
2022-10-20T06:27:01.500Z,17.20
2022-10-20T06:29:28.211Z,17.20
2022-10-20T06:31:54.904Z,17.20
2022-10-20T06:34:22.930Z,17.20
2022-10-20T06:36:49.972Z,17.20
2022-10-20T06:39:18.337Z,17.20
2022-10-20T06:41:50.442Z,17.10
2022-10-20T06:44:19.479Z,17.20
2022-10-20T06:46:46.335Z,17.10
2022-10-20T06:49:13.620Z,17.10
2022-10-20T06:51:40.576Z,17.10
2022-10-20T06:54:07.408Z,17.10
2022-10-20T06:56:35.245Z,17.10
2022-10-20T06:59:02.223Z,17.10
2022-10-20T07:01:30.142Z,17.10
2022-10-20T07:03:58.153Z,17.10
2022-10-20T07:06:44.055Z,17.10
2022-10-20T07:09:13.922Z,17.00
2022-10-20T07:11:40.943Z,17.00
2022-10-20T07:14:07.727Z,17.00
2022-10-20T07:16:34.855Z,17.00
2022-10-20T07:19:02.727Z,17.00
2022-10-20T07:21:34.656Z,17.00
2022-10-20T07:24:04.385Z,17.00
2022-10-20T07:26:32.611Z,17.00
2022-10-20T07:29:00.113Z,17.00
2022-10-20T07:31:26.822Z,17.00
2022-10-20T07:34:06.770Z,17.00
2022-10-20T07:36:40.868Z,17.00
2022-10-20T07:39:07.661Z,17.00
2022-10-20T07:41:36.738Z,17.00
2022-10-20T07:44:03.536Z,17.00
2022-10-20T07:46:30.235Z,17.00
2022-10-20T07:49:02.759Z,17.00
2022-10-20T07:51:38.321Z,17.00
2022-10-20T07:54:07.160Z,17.00
2022-10-20T07:56:35.328Z,17.00
2022-10-20T07:59:02.253Z,17.00
2022-10-20T08:01:29.141Z,17.00
2022-10-20T08:03:55.858Z,16.90
2022-10-20T08:06:22.665Z,16.90
2022-10-20T08:08:49.421Z,16.90
2022-10-20T08:11:16.515Z,16.90
2022-10-20T08:13:43.212Z,17.00
2022-10-20T08:16:18.459Z,17.00
2022-10-20T08:21:24.486Z,17.00
2022-10-20T08:23:51.573Z,16.90
2022-10-20T08:26:23.055Z,16.90
2022-10-20T08:28:50.490Z,16.90
2022-10-20T08:31:17.389Z,16.90
2022-10-20T08:33:45.309Z,16.90
2022-10-20T08:36:15.027Z,16.90
2022-10-20T08:38:42.295Z,16.90
2022-10-20T08:41:34.582Z,16.90
2022-10-20T08:44:02.212Z,16.90
2022-10-20T08:46:40.082Z,16.90
2022-10-20T08:49:10.717Z,16.90
2022-10-20T08:51:38.497Z,16.90
2022-10-20T08:54:06.397Z,16.90
2022-10-20T08:56:34.007Z,16.90
2022-10-20T08:59:01.519Z,16.90
2022-10-20T09:01:33.208Z,16.90
2022-10-20T09:04:04.714Z,16.90
2022-10-20T09:06:31.657Z,16.80
2022-10-20T09:09:00.257Z,16.80
2022-10-20T09:11:34.600Z,16.80
2022-10-20T09:14:01.332Z,16.80
2022-10-20T09:16:40.761Z,16.80
2022-10-20T09:19:22.295Z,16.90
2022-10-20T09:21:53.644Z,16.90
2022-10-20T09:24:21.475Z,16.80
2022-10-20T09:27:04.497Z,16.90
2022-10-20T09:29:35.106Z,16.90
2022-10-20T09:32:15.350Z,16.90
2022-10-20T09:34:48.563Z,16.90
2022-10-20T09:37:18.648Z,16.90
2022-10-20T09:39:52.715Z,16.90
2022-10-20T09:42:34.159Z,16.90
2022-10-20T09:45:04.985Z,16.90
2022-10-20T09:47:33.904Z,16.90
2022-10-20T09:50:01.731Z,16.90
2022-10-20T09:52:35.014Z,16.90
2022-10-20T09:55:04.455Z,16.90
2022-10-20T09:57:31.446Z,16.90
2022-10-20T10:00:01.456Z,16.90
2022-10-20T10:02:39.951Z,16.90
2022-10-20T10:05:14.147Z,16.90
2022-10-20T10:07:41.033Z,16.90
2022-10-20T10:10:08.669Z,16.90
2022-10-20T10:12:36.088Z,16.90
2022-10-20T10:15:08.063Z,16.90
2022-10-20T10:17:43.777Z,16.80
2022-10-20T10:20:10.634Z,16.80
2022-10-20T10:22:38.046Z,16.80
2022-10-20T10:25:06.371Z,16.80
2022-10-20T10:27:34.944Z,16.80
2022-10-20T10:30:17.143Z,16.80
2022-10-20T10:32:45.288Z,16.80
2022-10-20T10:35:22.733Z,16.80
2022-10-20T10:37:49.748Z,16.80
2022-10-20T10:40:26.483Z,16.80
2022-10-20T10:43:00.365Z,16.80
2022-10-20T10:45:50.995Z,16.80
2022-10-20T10:48:20.674Z,16.80
2022-10-20T10:50:47.346Z,16.80
2022-10-20T10:53:20.679Z,16.80
2022-10-20T10:56:06.462Z,16.80
2022-10-20T10:58:39.280Z,16.80
2022-10-20T11:01:06.061Z,16.80
2022-10-20T11:03:52.731Z,16.80
2022-10-20T11:06:24.713Z,16.80
2022-10-20T11:08:54.572Z,16.80
2022-10-20T11:11:33.372Z,16.80
2022-10-20T11:14:06.091Z,16.80
2022-10-20T11:16:35.623Z,16.80
2022-10-20T11:19:28.658Z,16.80
2022-10-20T11:21:55.311Z,16.80
2022-10-20T11:24:24.996Z,16.80
2022-10-20T11:26:54.468Z,16.80
2022-10-20T11:29:27.756Z,16.80
2022-10-20T11:31:54.644Z,16.80
2022-10-20T11:34:26.276Z,16.80
2022-10-20T11:36:56.967Z,16.80
2022-10-20T11:39:26.116Z,16.80
2022-10-20T11:41:58.163Z,16.80
2022-10-20T11:44:28.463Z,16.80
2022-10-20T11:47:00.143Z,16.80
2022-10-20T11:49:27.358Z,16.80
2022-10-20T11:52:12.836Z,16.80
2022-10-20T11:54:59.796Z,16.80
2022-10-20T11:57:45.238Z,16.80
2022-10-20T12:00:17.764Z,16.80
2022-10-20T12:02:56.399Z,16.90
2022-10-20T12:05:23.091Z,16.90
2022-10-20T12:08:17.538Z,16.90
2022-10-20T12:10:52.584Z,16.80
2022-10-20T12:13:19.250Z,16.80
2022-10-20T12:15:50.697Z,16.80
2022-10-20T12:18:28.855Z,16.80
2022-10-20T12:20:56.249Z,16.80
2022-10-20T12:23:41.326Z,16.80
2022-10-20T12:26:27.069Z,16.80
2022-10-20T12:28:53.719Z,16.80
2022-10-20T12:31:20.688Z,16.80
2022-10-20T12:33:50.444Z,16.80
2022-10-20T12:36:17.076Z,16.80
2022-10-20T12:39:03.964Z,16.80
2022-10-20T12:41:33.869Z,16.80
2022-10-20T12:44:07.172Z,16.80
2022-10-20T12:46:35.541Z,16.80
2022-10-20T12:49:09.497Z,16.80
2022-10-20T12:51:41.138Z,16.80
2022-10-20T12:54:23.009Z,16.80
2022-10-20T12:56:50.648Z,16.80
2022-10-20T12:59:20.401Z,16.80
2022-10-20T13:02:05.715Z,16.80
2022-10-20T13:04:51.211Z,16.80
2022-10-20T13:07:38.005Z,16.80
2022-10-20T13:10:24.739Z,16.80
2022-10-20T13:12:51.457Z,16.80
2022-10-20T13:15:19.596Z,16.80
2022-10-20T13:17:55.188Z,16.80
2022-10-20T13:20:30.992Z,16.80
2022-10-20T13:22:57.871Z,16.80
2022-10-20T13:25:32.420Z,16.80
2022-10-20T13:28:03.370Z,16.90
2022-10-20T13:30:31.216Z,16.80
2022-10-20T13:33:38.685Z,16.80
2022-10-20T13:36:12.296Z,16.90
2022-10-20T13:38:38.917Z,16.90
2022-10-20T13:41:24.194Z,16.90
2022-10-20T13:43:56.657Z,16.80
2022-10-20T13:46:43.063Z,16.80
2022-10-20T13:49:15.839Z,16.80
2022-10-20T13:51:51.728Z,16.80
2022-10-20T13:54:26.259Z,16.80
2022-10-20T13:56:53.326Z,16.90
2022-10-20T14:01:52.578Z,16.90
2022-10-20T14:04:23.508Z,16.90
2022-10-20T14:06:50.199Z,16.90
2022-10-20T14:09:18.306Z,17.00
2022-10-20T14:11:46.174Z,17.00
2022-10-20T14:14:13.836Z,17.00
2022-10-20T14:16:44.886Z,17.00
2022-10-20T14:19:12.385Z,17.00
2022-10-20T14:21:50.743Z,16.90
2022-10-20T14:24:37.495Z,16.90
2022-10-20T14:27:05.102Z,16.90
2022-10-20T14:29:33.569Z,16.90
2022-10-20T14:32:00.657Z,16.90
2022-10-20T14:34:35.073Z,16.90
2022-10-20T14:37:02.488Z,16.90
2022-10-20T14:39:37.151Z,16.90
2022-10-20T14:42:22.443Z,16.90
2022-10-20T14:44:50.389Z,16.90
2022-10-20T14:47:18.561Z,16.90
2022-10-20T14:49:51.539Z,16.90
2022-10-20T14:52:21.539Z,16.90
2022-10-20T14:54:51.735Z,16.90
2022-10-20T14:57:19.020Z,16.90
2022-10-20T14:59:59.102Z,16.90
2022-10-20T15:02:30.336Z,16.90
2022-10-20T15:05:16.964Z,16.90
2022-10-20T15:07:43.808Z,16.90
2022-10-20T15:10:14.734Z,16.90
2022-10-20T15:12:49.017Z,16.90
2022-10-20T15:15:21.779Z,16.90
2022-10-20T15:17:52.833Z,16.90
2022-10-20T15:20:32.207Z,16.90
2022-10-20T15:23:12.297Z,16.90
2022-10-20T15:25:44.984Z,16.90
2022-10-20T15:28:14.735Z,16.90
2022-10-20T15:30:41.462Z,16.90
2022-10-20T15:33:08.882Z,16.90
2022-10-20T15:35:35.568Z,16.90
2022-10-20T15:38:02.212Z,16.90
2022-10-20T15:40:28.930Z,16.90
2022-10-20T15:42:55.644Z,16.90
2022-10-20T15:45:24.117Z,16.90
2022-10-20T15:47:50.990Z,16.90
2022-10-20T15:50:19.532Z,16.90
2022-10-20T15:52:48.443Z,16.90
2022-10-20T15:55:22.299Z,16.90
2022-10-20T15:57:50.035Z,16.90
2022-10-20T16:00:17.134Z,16.90
2022-10-20T16:02:43.901Z,16.90
2022-10-20T16:05:10.667Z,17.00
2022-10-20T16:07:37.621Z,17.00
2022-10-20T16:10:05.765Z,17.00
2022-10-20T16:12:32.487Z,17.00
2022-10-20T16:14:59.148Z,17.00
2022-10-20T16:17:26.012Z,17.00
2022-10-20T16:19:52.839Z,17.00
2022-10-20T16:22:19.772Z,17.00
2022-10-20T16:24:47.082Z,17.00
2022-10-20T16:27:14.442Z,17.00
2022-10-20T16:29:42.496Z,17.00
2022-10-20T16:32:10.872Z,17.00
2022-10-20T16:34:37.579Z,17.00
2022-10-20T16:37:04.271Z,17.00
2022-10-20T16:39:30.997Z,17.10
2022-10-20T16:41:57.827Z,17.00
2022-10-20T16:44:24.530Z,17.10
2022-10-20T16:46:51.420Z,17.00
2022-10-20T16:49:18.027Z,17.00
2022-10-20T16:51:44.719Z,17.10
2022-10-20T16:54:11.399Z,17.10
2022-10-20T16:56:38.104Z,17.00
2022-10-20T16:59:04.783Z,17.00
2022-10-20T17:01:31.851Z,17.00
2022-10-20T17:03:58.492Z,17.00
2022-10-20T17:06:25.835Z,17.00
2022-10-20T17:08:53.145Z,17.00
2022-10-20T17:11:21.422Z,17.00
2022-10-20T17:13:48.105Z,17.00
2022-10-20T17:16:16.342Z,17.10
2022-10-20T17:18:43.105Z,17.10
2022-10-20T17:21:10.403Z,17.10
2022-10-20T17:23:41.642Z,17.10
2022-10-20T17:26:11.896Z,17.10
2022-10-20T17:28:38.714Z,17.20
2022-10-20T17:31:06.370Z,17.10
2022-10-20T17:33:33.548Z,17.20
2022-10-20T17:36:01.726Z,17.20
2022-10-20T17:38:28.975Z,17.30
2022-10-20T17:40:55.649Z,17.40
2022-10-20T17:43:22.387Z,17.40
2022-10-20T17:45:58.925Z,17.40
2022-10-20T17:48:25.759Z,17.50
2022-10-20T17:50:59.313Z,17.50
2022-10-20T17:53:26.030Z,17.60
2022-10-20T17:55:52.647Z,17.70
2022-10-20T17:58:19.428Z,17.90
2022-10-20T18:00:55.895Z,18.10
2022-10-20T18:03:23.577Z,18.20
2022-10-20T18:05:50.212Z,18.50
2022-10-20T18:08:16.901Z,18.70
2022-10-20T18:10:44.103Z,18.90
2022-10-20T18:13:10.961Z,19.20
2022-10-20T18:15:41.463Z,19.30
2022-10-20T18:18:08.432Z,19.50
2022-10-20T18:20:35.070Z,19.70
2022-10-20T18:23:01.874Z,19.90
2022-10-20T18:25:28.555Z,20.00
2022-10-20T18:27:55.298Z,20.10
2022-10-20T18:30:22.011Z,20.20
2022-10-20T18:32:48.637Z,20.30
2022-10-20T18:35:15.450Z,20.30
2022-10-20T18:37:42.400Z,20.40
2022-10-20T18:40:09.259Z,20.40
2022-10-20T18:42:35.943Z,20.40
2022-10-20T18:45:02.698Z,20.50
2022-10-20T18:47:29.390Z,20.50
2022-10-20T18:49:56.068Z,20.60
2022-10-20T18:52:22.740Z,20.60
2022-10-20T18:54:49.457Z,20.60
2022-10-20T18:57:16.264Z,20.60
2022-10-20T18:59:43.063Z,20.60
2022-10-20T19:02:10.300Z,20.60
2022-10-20T19:04:36.967Z,20.60
2022-10-20T19:07:03.587Z,20.60
2022-10-20T19:09:30.217Z,20.60
2022-10-20T19:11:56.889Z,20.60
2022-10-20T19:14:23.520Z,20.60
2022-10-20T19:16:50.975Z,20.60
2022-10-20T19:19:17.729Z,20.60
2022-10-20T19:21:44.480Z,20.60
2022-10-20T19:24:13.996Z,20.60
2022-10-20T19:26:42.334Z,20.50
2022-10-20T19:29:13.339Z,20.50
2022-10-20T19:31:40.194Z,20.50
2022-10-20T19:34:10.028Z,20.50
2022-10-20T19:36:37.456Z,20.50
2022-10-20T19:39:05.423Z,20.40
2022-10-20T19:41:32.207Z,20.40
2022-10-20T19:43:59.237Z,20.40
2022-10-20T19:46:26.023Z,20.40
2022-10-20T19:48:55.434Z,20.30
2022-10-20T19:51:22.143Z,20.30
2022-10-20T19:53:49.756Z,20.30
2022-10-20T19:56:16.976Z,20.30
2022-10-20T19:58:46.489Z,20.30
2022-10-20T20:01:13.892Z,20.30
2022-10-20T20:03:40.690Z,20.30
2022-10-20T20:06:07.316Z,20.30
2022-10-20T20:08:34.796Z,20.20
2022-10-20T20:11:02.525Z,20.20
2022-10-20T20:13:29.220Z,20.20
2022-10-20T20:15:55.991Z,20.20
2022-10-20T20:18:22.838Z,20.20
2022-10-20T20:20:49.528Z,20.20
2022-10-20T20:23:20.061Z,20.20
2022-10-20T20:25:52.481Z,20.10
2022-10-20T20:28:19.180Z,20.00
2022-10-20T20:30:57.636Z,19.80
2022-10-20T20:33:24.299Z,19.80
2022-10-20T20:35:58.099Z,19.80
2022-10-20T20:38:25.485Z,19.70
2022-10-20T20:40:52.528Z,19.70
2022-10-20T20:43:19.783Z,19.70
2022-10-20T20:45:46.604Z,19.60
2022-10-20T20:48:13.237Z,19.50
2022-10-20T20:50:39.987Z,19.60
2022-10-20T20:53:06.711Z,19.60
2022-10-20T20:55:33.374Z,19.50
2022-10-20T20:58:00.109Z,19.50
2022-10-20T21:00:26.903Z,19.50
2022-10-20T21:05:25.208Z,19.40
2022-10-20T21:07:51.865Z,19.40
2022-10-20T21:10:18.619Z,19.40
2022-10-20T21:12:45.425Z,19.40
2022-10-20T21:15:12.144Z,19.30
2022-10-20T21:17:38.984Z,19.30
2022-10-20T21:20:06.031Z,19.30
2022-10-20T21:22:32.656Z,19.30
2022-10-20T21:24:59.378Z,19.30
2022-10-20T21:27:26.083Z,19.30
2022-10-20T21:29:52.696Z,19.30
2022-10-20T21:32:20.359Z,19.30
2022-10-20T21:34:47.203Z,19.30
2022-10-20T21:37:13.843Z,19.20
2022-10-20T21:39:40.534Z,19.20
2022-10-20T21:42:07.256Z,19.20
2022-10-20T21:44:33.941Z,19.20
2022-10-20T21:47:00.658Z,19.20
2022-10-20T21:49:27.291Z,19.20
2022-10-20T21:51:55.305Z,19.20
2022-10-20T21:54:23.456Z,19.20
2022-10-20T21:56:50.431Z,19.10
2022-10-20T21:59:17.824Z,19.10
2022-10-20T22:01:44.898Z,19.10
2022-10-20T22:04:11.624Z,19.10
2022-10-20T22:06:38.619Z,19.10
2022-10-20T22:09:05.967Z,19.10
2022-10-20T22:11:34.212Z,19.10
2022-10-20T22:14:00.903Z,19.00
2022-10-20T22:16:29.899Z,19.10
2022-10-20T22:19:01.471Z,19.00
2022-10-20T22:21:29.119Z,19.00
2022-10-20T22:23:56.738Z,19.00
2022-10-20T22:26:25.694Z,19.00
2022-10-20T22:28:52.456Z,18.90
2022-10-20T22:31:19.287Z,18.90
2022-10-20T22:33:45.943Z,18.80
2022-10-20T22:36:12.665Z,18.80
2022-10-20T22:38:39.349Z,18.80
2022-10-20T22:41:06.261Z,18.80
2022-10-20T22:43:32.920Z,18.70
2022-10-20T22:45:59.792Z,18.70
2022-10-20T22:48:26.510Z,18.70
2022-10-20T22:50:53.149Z,18.70
2022-10-20T22:53:19.868Z,18.60
2022-10-20T22:55:46.883Z,18.60
2022-10-20T22:58:13.528Z,18.60
2022-10-20T23:00:40.977Z,18.60
2022-10-20T23:03:07.689Z,18.60
2022-10-20T23:05:34.447Z,18.60
2022-10-20T23:08:01.297Z,18.60
2022-10-20T23:10:28.221Z,18.60
2022-10-20T23:12:54.887Z,18.60
2022-10-20T23:15:22.869Z,18.60
2022-10-20T23:17:49.505Z,18.50
2022-10-20T23:20:16.252Z,18.50
2022-10-20T23:22:42.955Z,18.50
2022-10-20T23:25:09.713Z,18.50
2022-10-20T23:27:36.745Z,18.50
2022-10-20T23:30:03.814Z,18.50
2022-10-20T23:32:30.486Z,18.50
2022-10-20T23:34:57.189Z,18.50
2022-10-20T23:37:23.856Z,18.50
2022-10-20T23:39:50.575Z,18.40
2022-10-20T23:42:17.352Z,18.40
2022-10-20T23:44:44.050Z,18.40
2022-10-20T23:47:10.795Z,18.40
2022-10-20T23:49:37.421Z,18.40
2022-10-20T23:52:04.106Z,18.40
2022-10-20T23:54:30.768Z,18.40
2022-10-20T23:56:57.491Z,18.40
2022-10-20T23:59:24.123Z,18.40
